sensor_id;sensor_type;location;lat;lon;timestamp;noise_LAeq;noise_LA_min;noise_LA_max;noise_LA01;noise_LA95
70740;Laerm;58330;51.888;11.052;2023-05-09T00:00:16;5.00;5.00;5.00;;
70740;Laerm;58330;51.888;11.052;2023-05-09T00:02:44;5.00;5.00;5.00;;
70740;Laerm;58330;51.888;11.052;2023-05-09T00:05:12;5.00;5.00;5.00;;
70740;Laerm;58330;51.888;11.052;2023-05-09T00:07:39;5.00;5.00;5.00;;
70740;Laerm;58330;51.888;11.052;2023-05-09T00:10:05;5.00;5.00;5.00;;
70740;Laerm;58330;51.888;11.052;2023-05-09T00:12:32;5.00;5.00;5.00;;
70740;Laerm;58330;51.888;11.052;2023-05-09T00:14:58;5.00;5.00;5.00;;
70740;Laerm;58330;51.888;11.052;2023-05-09T00:17:25;5.00;5.00;5.00;;
70740;Laerm;58330;51.888;11.052;2023-05-09T00:19:52;5.00;5.00;5.00;;
70740;Laerm;58330;51.888;11.052;2023-05-09T00:22:20;5.00;5.00;5.00;;
70740;Laerm;58330;51.888;11.052;2023-05-09T00:24:47;5.00;5.00;5.00;;
70740;Laerm;58330;51.888;11.052;2023-05-09T00:27:13;5.00;5.00;5.00;;
70740;Laerm;58330;51.888;11.052;2023-05-09T00:29:40;5.00;5.00;5.00;;
70740;Laerm;58330;51.888;11.052;2023-05-09T00:32:06;5.00;5.00;5.00;;
70740;Laerm;58330;51.888;11.052;2023-05-09T00:34:33;5.00;5.00;5.00;;
70740;Laerm;58330;51.888;11.052;2023-05-09T00:36:59;5.00;5.00;5.00;;
70740;Laerm;58330;51.888;11.052;2023-05-09T00:39:28;5.00;5.00;5.00;;
70740;Laerm;58330;51.888;11.052;2023-05-09T00:41:54;5.00;5.00;5.00;;
70740;Laerm;58330;51.888;11.052;2023-05-09T00:44:21;5.00;5.00;5.00;;
70740;Laerm;58330;51.888;11.052;2023-05-09T00:46:47;59.99;5.00;96.23;;
70740;Laerm;58330;51.888;11.052;2023-05-09T00:49:14;34.10;32.76;35.28;;
70740;Laerm;58330;51.888;11.052;2023-05-09T00:51:40;34.26;32.97;35.65;;
70740;Laerm;58330;51.888;11.052;2023-05-09T00:54:07;34.21;32.64;35.51;;
70740;Laerm;58330;51.888;11.052;2023-05-09T00:56:35;34.03;32.78;35.48;;
70740;Laerm;58330;51.888;11.052;2023-05-09T00:59:02;33.99;32.65;35.26;;
70740;Laerm;58330;51.888;11.052;2023-05-09T01:01:28;34.24;32.84;35.46;;
70740;Laerm;58330;51.888;11.052;2023-05-09T01:03:55;34.14;32.70;35.59;;
70740;Laerm;58330;51.888;11.052;2023-05-09T01:06:26;34.08;32.82;35.48;;
70740;Laerm;58330;51.888;11.052;2023-05-09T01:08:58;34.05;32.82;35.42;;
70740;Laerm;58330;51.888;11.052;2023-05-09T01:11:28;33.90;32.62;35.10;;
70740;Laerm;58330;51.888;11.052;2023-05-09T01:13:58;33.87;32.55;35.36;;
70740;Laerm;58330;51.888;11.052;2023-05-09T01:16:33;33.90;32.35;35.27;;
70740;Laerm;58330;51.888;11.052;2023-05-09T01:19:01;33.85;32.49;35.07;;
70740;Laerm;58330;51.888;11.052;2023-05-09T01:21:33;33.87;32.49;35.27;;
70740;Laerm;58330;51.888;11.052;2023-05-09T01:27:03;33.81;32.49;35.29;;
70740;Laerm;58330;51.888;11.052;2023-05-09T01:29:35;33.83;32.39;35.15;;
70740;Laerm;58330;51.888;11.052;2023-05-09T01:32:02;33.79;32.49;34.96;;
70740;Laerm;58330;51.888;11.052;2023-05-09T01:34:31;33.80;32.26;34.96;;
70740;Laerm;58330;51.888;11.052;2023-05-09T01:36:58;33.76;32.47;34.97;;
70740;Laerm;58330;51.888;11.052;2023-05-09T01:39:26;33.73;32.39;34.95;;
70740;Laerm;58330;51.888;11.052;2023-05-09T01:41:54;33.72;32.42;34.89;;
70740;Laerm;58330;51.888;11.052;2023-05-09T01:44:21;33.72;32.17;34.86;;
70740;Laerm;58330;51.888;11.052;2023-05-09T01:46:51;33.77;32.38;34.91;;
70740;Laerm;58330;51.888;11.052;2023-05-09T01:49:18;33.87;32.58;35.19;;
70740;Laerm;58330;51.888;11.052;2023-05-09T01:51:45;33.93;32.60;35.26;;
70740;Laerm;58330;51.888;11.052;2023-05-09T01:54:12;33.84;32.43;35.05;;
70740;Laerm;58330;51.888;11.052;2023-05-09T01:56:39;33.78;32.52;35.20;;
70740;Laerm;58330;51.888;11.052;2023-05-09T01:59:07;33.79;32.50;35.09;;
70740;Laerm;58330;51.888;11.052;2023-05-09T02:01:34;33.76;32.24;34.92;;
70740;Laerm;58330;51.888;11.052;2023-05-09T02:04:02;33.78;32.50;34.91;;
70740;Laerm;58330;51.888;11.052;2023-05-09T02:06:29;33.77;32.32;35.16;;
70740;Laerm;58330;51.888;11.052;2023-05-09T02:08:56;33.79;32.35;35.27;;
70740;Laerm;58330;51.888;11.052;2023-05-09T02:11:23;33.74;32.51;35.03;;
70740;Laerm;58330;51.888;11.052;2023-05-09T02:13:50;33.78;32.41;35.03;;
70740;Laerm;58330;51.888;11.052;2023-05-09T02:16:16;33.74;32.57;34.97;;
70740;Laerm;58330;51.888;11.052;2023-05-09T02:18:43;33.74;32.43;35.09;;
70740;Laerm;58330;51.888;11.052;2023-05-09T02:21:10;33.71;32.34;34.89;;
70740;Laerm;58330;51.888;11.052;2023-05-09T02:23:37;33.70;32.50;34.78;;
70740;Laerm;58330;51.888;11.052;2023-05-09T02:26:03;33.71;32.28;34.88;;
70740;Laerm;58330;51.888;11.052;2023-05-09T02:28:30;33.68;32.32;34.91;;
70740;Laerm;58330;51.888;11.052;2023-05-09T02:30:57;33.69;32.31;34.95;;
70740;Laerm;58330;51.888;11.052;2023-05-09T02:33:25;33.70;32.29;35.61;;
70740;Laerm;58330;51.888;11.052;2023-05-09T02:35:52;33.72;32.30;34.98;;
70740;Laerm;58330;51.888;11.052;2023-05-09T02:38:23;33.72;32.52;34.94;;
70740;Laerm;58330;51.888;11.052;2023-05-09T02:40:51;33.67;32.45;35.16;;
70740;Laerm;58330;51.888;11.052;2023-05-09T02:43:18;33.66;32.39;34.93;;
70740;Laerm;58330;51.888;11.052;2023-05-09T02:45:44;33.66;32.38;34.96;;
70740;Laerm;58330;51.888;11.052;2023-05-09T02:48:10;33.68;32.52;34.78;;
70740;Laerm;58330;51.888;11.052;2023-05-09T02:50:37;33.68;32.54;35.00;;
70740;Laerm;58330;51.888;11.052;2023-05-09T02:53:05;33.68;32.55;34.93;;
70740;Laerm;58330;51.888;11.052;2023-05-09T02:55:33;33.70;32.31;35.12;;
70740;Laerm;58330;51.888;11.052;2023-05-09T02:58:00;33.69;32.08;34.82;;
70740;Laerm;58330;51.888;11.052;2023-05-09T03:00:26;33.70;32.30;34.83;;
70740;Laerm;58330;51.888;11.052;2023-05-09T03:02:52;33.71;32.40;35.01;;
70740;Laerm;58330;51.888;11.052;2023-05-09T03:05:20;33.69;32.30;35.07;;
70740;Laerm;58330;51.888;11.052;2023-05-09T03:07:46;33.74;32.42;38.01;;
70740;Laerm;58330;51.888;11.052;2023-05-09T03:10:13;33.69;32.36;35.07;;
70740;Laerm;58330;51.888;11.052;2023-05-09T03:12:41;33.72;32.27;35.10;;
70740;Laerm;58330;51.888;11.052;2023-05-09T03:15:08;33.73;32.26;36.67;;
70740;Laerm;58330;51.888;11.052;2023-05-09T03:17:34;33.70;32.31;35.01;;
70740;Laerm;58330;51.888;11.052;2023-05-09T03:20:01;33.65;32.37;34.87;;
70740;Laerm;58330;51.888;11.052;2023-05-09T03:22:29;33.63;32.26;34.74;;
70740;Laerm;58330;51.888;11.052;2023-05-09T03:24:55;33.72;32.46;34.99;;
70740;Laerm;58330;51.888;11.052;2023-05-09T03:27:22;33.69;32.21;35.04;;
70740;Laerm;58330;51.888;11.052;2023-05-09T03:29:51;33.68;32.50;35.08;;
70740;Laerm;58330;51.888;11.052;2023-05-09T03:32:18;33.64;32.29;34.81;;
70740;Laerm;58330;51.888;11.052;2023-05-09T03:34:44;33.63;32.51;34.88;;
70740;Laerm;58330;51.888;11.052;2023-05-09T03:37:11;33.64;32.32;34.84;;
70740;Laerm;58330;51.888;11.052;2023-05-09T03:39:38;33.64;32.20;34.92;;
70740;Laerm;58330;51.888;11.052;2023-05-09T03:42:04;33.67;32.11;35.11;;
70740;Laerm;58330;51.888;11.052;2023-05-09T03:44:31;33.64;32.37;34.91;;
70740;Laerm;58330;51.888;11.052;2023-05-09T03:46:59;33.62;32.21;35.51;;
70740;Laerm;58330;51.888;11.052;2023-05-09T03:49:25;33.59;32.25;34.93;;
70740;Laerm;58330;51.888;11.052;2023-05-09T03:51:51;33.61;32.16;34.85;;
70740;Laerm;58330;51.888;11.052;2023-05-09T03:54:18;33.58;32.34;34.96;;
70740;Laerm;58330;51.888;11.052;2023-05-09T03:56:44;33.59;32.24;34.99;;
70740;Laerm;58330;51.888;11.052;2023-05-09T03:59:11;33.55;32.24;34.71;;
70740;Laerm;58330;51.888;11.052;2023-05-09T04:01:38;33.56;32.23;34.82;;
70740;Laerm;58330;51.888;11.052;2023-05-09T04:04:06;33.59;32.22;34.83;;
70740;Laerm;58330;51.888;11.052;2023-05-09T04:06:32;33.61;32.32;39.54;;
70740;Laerm;58330;51.888;11.052;2023-05-09T04:08:59;33.59;32.37;34.91;;
70740;Laerm;58330;51.888;11.052;2023-05-09T04:11:26;33.76;32.01;35.07;;
70740;Laerm;58330;51.888;11.052;2023-05-09T04:13:53;33.75;32.59;35.07;;
70740;Laerm;58330;51.888;11.052;2023-05-09T04:16:19;33.74;32.33;35.08;;
70740;Laerm;58330;51.888;11.052;2023-05-09T04:18:45;33.70;32.45;35.07;;
70740;Laerm;58330;51.888;11.052;2023-05-09T04:21:13;33.71;32.56;35.33;;
70740;Laerm;58330;51.888;11.052;2023-05-09T04:23:40;33.78;32.44;35.02;;
70740;Laerm;58330;51.888;11.052;2023-05-09T04:26:07;33.86;32.40;35.22;;
70740;Laerm;58330;51.888;11.052;2023-05-09T04:28:36;33.81;32.35;35.72;;
70740;Laerm;58330;51.888;11.052;2023-05-09T04:31:03;33.85;32.13;35.19;;
70740;Laerm;58330;51.888;11.052;2023-05-09T04:33:29;33.82;32.62;35.28;;
70740;Laerm;58330;51.888;11.052;2023-05-09T04:35:55;33.85;32.49;35.13;;
70740;Laerm;58330;51.888;11.052;2023-05-09T04:38:24;33.86;32.44;35.30;;
70740;Laerm;58330;51.888;11.052;2023-05-09T04:40:50;33.83;32.34;35.05;;
70740;Laerm;58330;51.888;11.052;2023-05-09T04:43:17;33.92;32.48;35.88;;
70740;Laerm;58330;51.888;11.052;2023-05-09T04:45:44;61.86;-325.88;96.22;;
70740;Laerm;58330;51.888;11.052;2023-05-09T04:48:10;33.71;32.20;35.26;;
70740;Laerm;58330;51.888;11.052;2023-05-09T04:50:37;33.60;32.27;36.95;;
70740;Laerm;58330;51.888;11.052;2023-05-09T04:53:03;33.72;31.69;37.82;;
70740;Laerm;58330;51.888;11.052;2023-05-09T04:55:31;33.25;31.60;35.08;;
70740;Laerm;58330;51.888;11.052;2023-05-09T04:57:57;33.21;31.78;34.75;;
70740;Laerm;58330;51.888;11.052;2023-05-09T05:00:27;33.23;31.72;34.55;;
70740;Laerm;58330;51.888;11.052;2023-05-09T05:02:53;33.26;31.86;34.47;;
70740;Laerm;58330;51.888;11.052;2023-05-09T05:05:20;33.36;31.89;34.79;;
70740;Laerm;58330;51.888;11.052;2023-05-09T05:07:46;33.72;32.19;35.54;;
70740;Laerm;58330;51.888;11.052;2023-05-09T05:10:13;33.70;32.11;35.43;;
70740;Laerm;58330;51.888;11.052;2023-05-09T05:12:41;33.62;32.19;35.17;;
70740;Laerm;58330;51.888;11.052;2023-05-09T05:15:08;33.37;32.00;35.08;;
70740;Laerm;58330;51.888;11.052;2023-05-09T05:17:34;58.50;-327.34;94.74;;
70740;Laerm;58330;51.888;11.052;2023-05-09T05:20:01;5.00;5.00;5.00;;
70740;Laerm;58330;51.888;11.052;2023-05-09T05:22:30;5.00;5.00;5.00;;
70740;Laerm;58330;51.888;11.052;2023-05-09T05:24:57;5.00;5.00;5.00;;
70740;Laerm;58330;51.888;11.052;2023-05-09T05:27:23;5.00;5.00;5.00;;
70740;Laerm;58330;51.888;11.052;2023-05-09T05:29:51;5.00;5.00;5.00;;
70740;Laerm;58330;51.888;11.052;2023-05-09T05:32:18;5.00;5.00;5.00;;
70740;Laerm;58330;51.888;11.052;2023-05-09T05:34:45;5.00;5.00;5.00;;
70740;Laerm;58330;51.888;11.052;2023-05-09T05:37:18;5.00;5.00;5.00;;
70740;Laerm;58330;51.888;11.052;2023-05-09T05:39:46;5.00;5.00;5.00;;
70740;Laerm;58330;51.888;11.052;2023-05-09T05:42:13;5.00;5.00;5.00;;
70740;Laerm;58330;51.888;11.052;2023-05-09T05:47:29;5.00;5.00;5.00;;
70740;Laerm;58330;51.888;11.052;2023-05-09T05:49:57;5.00;5.00;5.00;;
70740;Laerm;58330;51.888;11.052;2023-05-09T05:52:23;5.00;5.00;5.00;;
70740;Laerm;58330;51.888;11.052;2023-05-09T05:54:50;5.00;5.00;5.00;;
70740;Laerm;58330;51.888;11.052;2023-05-09T05:57:16;5.00;5.00;5.00;;
70740;Laerm;58330;51.888;11.052;2023-05-09T05:59:43;5.00;5.00;5.00;;
70740;Laerm;58330;51.888;11.052;2023-05-09T06:04:57;5.00;5.00;5.00;;
70740;Laerm;58330;51.888;11.052;2023-05-09T06:07:23;5.00;5.00;5.00;;
70740;Laerm;58330;51.888;11.052;2023-05-09T06:09:50;5.00;5.00;5.00;;
70740;Laerm;58330;51.888;11.052;2023-05-09T06:12:18;5.00;5.00;5.00;;
70740;Laerm;58330;51.888;11.052;2023-05-09T06:14:44;5.00;5.00;5.00;;
70740;Laerm;58330;51.888;11.052;2023-05-09T06:17:10;5.00;5.00;5.00;;
70740;Laerm;58330;51.888;11.052;2023-05-09T06:19:37;5.00;5.00;5.00;;
70740;Laerm;58330;51.888;11.052;2023-05-09T06:22:05;5.00;5.00;5.00;;
70740;Laerm;58330;51.888;11.052;2023-05-09T06:24:32;5.00;5.00;5.00;;
70740;Laerm;58330;51.888;11.052;2023-05-09T06:27:03;5.00;5.00;5.00;;
70740;Laerm;58330;51.888;11.052;2023-05-09T06:29:32;5.00;5.00;5.00;;
70740;Laerm;58330;51.888;11.052;2023-05-09T06:31:59;5.00;5.00;5.00;;
70740;Laerm;58330;51.888;11.052;2023-05-09T06:34:25;5.00;5.00;5.00;;
70740;Laerm;58330;51.888;11.052;2023-05-09T06:36:52;5.00;5.00;5.00;;
70740;Laerm;58330;51.888;11.052;2023-05-09T06:39:19;5.00;5.00;5.00;;
70740;Laerm;58330;51.888;11.052;2023-05-09T06:41:49;5.00;5.00;5.00;;
70740;Laerm;58330;51.888;11.052;2023-05-09T06:44:16;5.00;5.00;5.00;;
70740;Laerm;58330;51.888;11.052;2023-05-09T06:46:42;5.00;5.00;5.00;;
70740;Laerm;58330;51.888;11.052;2023-05-09T06:49:11;5.00;5.00;5.00;;
70740;Laerm;58330;51.888;11.052;2023-05-09T06:51:38;5.00;5.00;5.00;;
70740;Laerm;58330;51.888;11.052;2023-05-09T06:56:55;5.00;5.00;5.00;;
70740;Laerm;58330;51.888;11.052;2023-05-09T06:59:22;5.00;5.00;5.00;;
70740;Laerm;58330;51.888;11.052;2023-05-09T07:01:49;5.00;5.00;5.00;;
70740;Laerm;58330;51.888;11.052;2023-05-09T07:04:15;5.00;5.00;5.00;;
70740;Laerm;58330;51.888;11.052;2023-05-09T07:06:42;5.00;5.00;5.00;;
70740;Laerm;58330;51.888;11.052;2023-05-09T07:09:08;5.00;5.00;5.00;;
70740;Laerm;58330;51.888;11.052;2023-05-09T07:11:35;5.00;5.00;5.00;;
70740;Laerm;58330;51.888;11.052;2023-05-09T07:14:03;5.00;5.00;5.00;;
70740;Laerm;58330;51.888;11.052;2023-05-09T07:19:17;5.00;5.00;5.00;;
70740;Laerm;58330;51.888;11.052;2023-05-09T07:24:42;5.00;5.00;5.00;;
70740;Laerm;58330;51.888;11.052;2023-05-09T07:27:10;5.00;5.00;5.00;;
70740;Laerm;58330;51.888;11.052;2023-05-09T07:29:55;5.00;5.00;5.00;;
70740;Laerm;58330;51.888;11.052;2023-05-09T07:32:36;5.00;5.00;5.00;;
70740;Laerm;58330;51.888;11.052;2023-05-09T07:35:04;5.00;5.00;5.00;;
70740;Laerm;58330;51.888;11.052;2023-05-09T07:37:47;5.00;5.00;5.00;;
70740;Laerm;58330;51.888;11.052;2023-05-09T07:40:14;5.00;5.00;5.00;;
70740;Laerm;58330;51.888;11.052;2023-05-09T07:42:44;5.00;5.00;5.00;;
70740;Laerm;58330;51.888;11.052;2023-05-09T07:45:15;5.00;5.00;5.00;;
70740;Laerm;58330;51.888;11.052;2023-05-09T07:47:41;5.00;5.00;5.00;;
70740;Laerm;58330;51.888;11.052;2023-05-09T07:50:08;5.00;5.00;5.00;;
70740;Laerm;58330;51.888;11.052;2023-05-09T07:52:34;5.00;5.00;5.00;;
70740;Laerm;58330;51.888;11.052;2023-05-09T07:55:01;5.00;5.00;5.00;;
70740;Laerm;58330;51.888;11.052;2023-05-09T07:57:28;5.00;5.00;5.00;;
70740;Laerm;58330;51.888;11.052;2023-05-09T07:59:54;5.00;5.00;5.00;;
70740;Laerm;58330;51.888;11.052;2023-05-09T08:02:22;5.00;5.00;5.00;;
70740;Laerm;58330;51.888;11.052;2023-05-09T08:04:49;5.00;5.00;5.00;;
70740;Laerm;58330;51.888;11.052;2023-05-09T08:07:16;5.00;5.00;5.00;;
70740;Laerm;58330;51.888;11.052;2023-05-09T08:09:42;5.00;5.00;5.00;;
70740;Laerm;58330;51.888;11.052;2023-05-09T08:12:09;5.00;5.00;5.00;;
70740;Laerm;58330;51.888;11.052;2023-05-09T08:14:35;5.00;5.00;5.00;;
70740;Laerm;58330;51.888;11.052;2023-05-09T08:17:01;5.00;5.00;5.00;;
70740;Laerm;58330;51.888;11.052;2023-05-09T08:19:29;5.00;5.00;5.00;;
70740;Laerm;58330;51.888;11.052;2023-05-09T08:21:56;5.00;5.00;5.00;;
70740;Laerm;58330;51.888;11.052;2023-05-09T08:24:24;5.00;5.00;5.00;;
70740;Laerm;58330;51.888;11.052;2023-05-09T08:26:51;5.00;5.00;5.00;;
70740;Laerm;58330;51.888;11.052;2023-05-09T08:29:18;5.00;5.00;5.00;;
70740;Laerm;58330;51.888;11.052;2023-05-09T08:31:44;5.00;5.00;5.00;;
70740;Laerm;58330;51.888;11.052;2023-05-09T08:34:10;5.00;5.00;5.00;;
70740;Laerm;58330;51.888;11.052;2023-05-09T08:36:42;5.00;5.00;5.00;;
70740;Laerm;58330;51.888;11.052;2023-05-09T08:39:11;5.00;5.00;5.00;;
70740;Laerm;58330;51.888;11.052;2023-05-09T08:41:37;5.00;5.00;5.00;;
70740;Laerm;58330;51.888;11.052;2023-05-09T08:44:04;55.57;5.00;91.78;;
70740;Laerm;58330;51.888;11.052;2023-05-09T08:46:33;32.80;30.82;39.02;;
70740;Laerm;58330;51.888;11.052;2023-05-09T08:49:02;32.94;30.96;36.43;;
70740;Laerm;58330;51.888;11.052;2023-05-09T08:51:30;33.17;31.23;40.12;;
70740;Laerm;58330;51.888;11.052;2023-05-09T08:53:58;32.73;30.71;37.20;;
70740;Laerm;58330;51.888;11.052;2023-05-09T08:56:25;33.11;30.81;40.60;;
70740;Laerm;58330;51.888;11.052;2023-05-09T08:58:52;33.13;30.62;40.51;;
70740;Laerm;58330;51.888;11.052;2023-05-09T09:01:19;32.90;30.84;37.77;;
70740;Laerm;58330;51.888;11.052;2023-05-09T09:03:46;32.77;30.91;36.25;;
70740;Laerm;58330;51.888;11.052;2023-05-09T09:06:34;32.59;30.90;37.39;;
70740;Laerm;58330;51.888;11.052;2023-05-09T09:09:02;32.72;31.06;35.79;;
70740;Laerm;58330;51.888;11.052;2023-05-09T09:17:07;33.24;30.75;41.14;;
70740;Laerm;58330;51.888;11.052;2023-05-09T09:19:34;32.83;30.56;36.46;;
70740;Laerm;58330;51.888;11.052;2023-05-09T09:22:02;32.51;30.93;36.79;;
70740;Laerm;58330;51.888;11.052;2023-05-09T09:24:31;32.93;30.91;38.30;;
70740;Laerm;58330;51.888;11.052;2023-05-09T09:27:03;32.65;31.05;36.94;;
70740;Laerm;58330;51.888;11.052;2023-05-09T09:32:23;32.42;30.84;35.98;;
70740;Laerm;58330;51.888;11.052;2023-05-09T09:37:43;32.61;30.53;37.10;;
70740;Laerm;58330;51.888;11.052;2023-05-09T09:40:19;32.89;30.78;43.06;;
70740;Laerm;58330;51.888;11.052;2023-05-09T09:42:50;32.59;30.74;45.29;;
70740;Laerm;58330;51.888;11.052;2023-05-09T09:45:17;32.19;30.55;40.53;;
70740;Laerm;58330;51.888;11.052;2023-05-09T09:47:46;32.25;30.42;34.80;;
70740;Laerm;58330;51.888;11.052;2023-05-09T09:50:15;32.34;30.48;37.05;;
70740;Laerm;58330;51.888;11.052;2023-05-09T09:52:42;32.11;30.43;41.32;;
70740;Laerm;58330;51.888;11.052;2023-05-09T09:57:56;32.24;30.36;38.78;;
70740;Laerm;58330;51.888;11.052;2023-05-09T10:00:23;31.97;30.02;38.57;;
70740;Laerm;58330;51.888;11.052;2023-05-09T10:02:51;31.99;30.34;35.90;;
70740;Laerm;58330;51.888;11.052;2023-05-09T10:05:19;31.86;29.93;37.62;;
70740;Laerm;58330;51.888;11.052;2023-05-09T10:07:48;31.51;29.80;36.53;;
70740;Laerm;58330;51.888;11.052;2023-05-09T10:10:18;32.09;30.22;41.89;;
70740;Laerm;58330;51.888;11.052;2023-05-09T10:12:44;31.57;30.08;35.14;;
70740;Laerm;58330;51.888;11.052;2023-05-09T10:15:19;31.98;30.02;42.67;;
70740;Laerm;58330;51.888;11.052;2023-05-09T10:17:46;32.09;30.10;40.54;;
70740;Laerm;58330;51.888;11.052;2023-05-09T10:20:14;31.79;29.84;37.69;;
70740;Laerm;58330;51.888;11.052;2023-05-09T10:22:48;31.77;29.89;37.03;;
70740;Laerm;58330;51.888;11.052;2023-05-09T10:28:14;31.75;29.81;38.93;;
70740;Laerm;58330;51.888;11.052;2023-05-09T10:30:47;31.96;29.94;37.37;;
70740;Laerm;58330;51.888;11.052;2023-05-09T10:33:17;31.46;29.67;35.71;;
70740;Laerm;58330;51.888;11.052;2023-05-09T10:35:46;31.63;29.55;38.02;;
70740;Laerm;58330;51.888;11.052;2023-05-09T10:38:13;31.34;29.79;36.05;;
70740;Laerm;58330;51.888;11.052;2023-05-09T10:40:39;32.18;29.63;49.84;;
70740;Laerm;58330;51.888;11.052;2023-05-09T10:43:06;31.98;29.80;35.92;;
70740;Laerm;58330;51.888;11.052;2023-05-09T10:45:33;31.44;29.83;37.73;;
70740;Laerm;58330;51.888;11.052;2023-05-09T10:48:03;31.97;30.11;38.57;;
70740;Laerm;58330;51.888;11.052;2023-05-09T10:50:32;31.97;30.08;39.68;;
70740;Laerm;58330;51.888;11.052;2023-05-09T10:53:03;31.73;29.87;35.21;;
70740;Laerm;58330;51.888;11.052;2023-05-09T10:58:26;31.71;30.21;36.06;;
70740;Laerm;58330;51.888;11.052;2023-05-09T11:00:56;31.73;30.27;35.56;;
70740;Laerm;58330;51.888;11.052;2023-05-09T11:03:25;31.53;29.96;33.31;;
70740;Laerm;58330;51.888;11.052;2023-05-09T11:05:52;32.05;30.40;49.13;;
70740;Laerm;58330;51.888;11.052;2023-05-09T11:08:37;31.98;30.25;36.63;;
70740;Laerm;58330;51.888;11.052;2023-05-09T11:11:11;31.87;29.78;37.71;;
70740;Laerm;58330;51.888;11.052;2023-05-09T11:13:48;31.93;30.20;37.06;;
70740;Laerm;58330;51.888;11.052;2023-05-09T11:16:15;32.79;30.15;47.94;;
70740;Laerm;58330;51.888;11.052;2023-05-09T11:18:50;32.21;30.30;41.74;;
70740;Laerm;58330;51.888;11.052;2023-05-09T11:24:14;32.61;30.36;44.14;;
70740;Laerm;58330;51.888;11.052;2023-05-09T11:26:45;32.02;30.34;38.14;;
70740;Laerm;58330;51.888;11.052;2023-05-09T11:29:13;32.02;30.07;36.99;;
70740;Laerm;58330;51.888;11.052;2023-05-09T11:34:26;31.78;30.12;35.93;;
70740;Laerm;58330;51.888;11.052;2023-05-09T11:37:05;31.86;30.04;34.72;;
70740;Laerm;58330;51.888;11.052;2023-05-09T11:39:32;32.04;30.13;36.27;;
70740;Laerm;58330;51.888;11.052;2023-05-09T11:41:58;31.92;30.22;42.14;;
70740;Laerm;58330;51.888;11.052;2023-05-09T11:44:39;31.88;30.27;36.21;;
70740;Laerm;58330;51.888;11.052;2023-05-09T11:47:06;31.60;29.96;34.72;;
70740;Laerm;58330;51.888;11.052;2023-05-09T11:49:34;31.84;30.27;37.14;;
70740;Laerm;58330;51.888;11.052;2023-05-09T11:52:04;32.50;29.84;41.41;;
70740;Laerm;58330;51.888;11.052;2023-05-09T11:54:30;31.53;30.11;34.78;;
70740;Laerm;58330;51.888;11.052;2023-05-09T11:56:57;31.59;29.94;39.31;;
70740;Laerm;58330;51.888;11.052;2023-05-09T11:59:24;31.77;29.94;40.48;;
70740;Laerm;58330;51.888;11.052;2023-05-09T12:01:51;31.65;29.72;45.34;;
70740;Laerm;58330;51.888;11.052;2023-05-09T12:04:18;31.63;29.91;43.15;;
70740;Laerm;58330;51.888;11.052;2023-05-09T12:06:47;31.64;29.82;36.74;;
70740;Laerm;58330;51.888;11.052;2023-05-09T12:09:16;31.90;30.04;41.48;;
70740;Laerm;58330;51.888;11.052;2023-05-09T12:11:47;31.73;30.04;35.74;;
70740;Laerm;58330;51.888;11.052;2023-05-09T12:14:24;32.00;30.00;41.24;;
70740;Laerm;58330;51.888;11.052;2023-05-09T12:16:51;32.66;29.96;46.71;;
70740;Laerm;58330;51.888;11.052;2023-05-09T12:19:17;31.40;29.72;33.92;;
70740;Laerm;58330;51.888;11.052;2023-05-09T12:21:44;31.75;29.90;41.19;;
70740;Laerm;58330;51.888;11.052;2023-05-09T12:24:12;31.30;29.61;36.69;;
70740;Laerm;58330;51.888;11.052;2023-05-09T12:26:38;31.42;29.80;34.83;;
70740;Laerm;58330;51.888;11.052;2023-05-09T12:29:05;31.30;29.64;35.60;;
70740;Laerm;58330;51.888;11.052;2023-05-09T12:31:31;31.45;29.68;37.59;;
70740;Laerm;58330;51.888;11.052;2023-05-09T12:34:02;31.16;29.53;33.88;;
70740;Laerm;58330;51.888;11.052;2023-05-09T12:36:33;31.37;29.56;41.18;;
70740;Laerm;58330;51.888;11.052;2023-05-09T12:38:59;31.47;29.57;36.41;;
70740;Laerm;58330;51.888;11.052;2023-05-09T12:41:27;31.51;29.76;36.56;;
70740;Laerm;58330;51.888;11.052;2023-05-09T12:43:55;32.05;29.87;43.82;;
70740;Laerm;58330;51.888;11.052;2023-05-09T12:46:21;31.50;29.87;44.44;;
70740;Laerm;58330;51.888;11.052;2023-05-09T12:48:48;31.63;29.85;38.52;;
70740;Laerm;58330;51.888;11.052;2023-05-09T12:51:16;31.70;29.31;47.48;;
70740;Laerm;58330;51.888;11.052;2023-05-09T12:53:43;31.76;29.78;41.08;;
70740;Laerm;58330;51.888;11.052;2023-05-09T12:56:13;32.23;29.91;44.80;;
70740;Laerm;58330;51.888;11.052;2023-05-09T12:58:50;31.37;29.52;36.91;;
70740;Laerm;58330;51.888;11.052;2023-05-09T13:01:17;31.31;29.72;38.44;;
70740;Laerm;58330;51.888;11.052;2023-05-09T13:03:47;31.72;29.87;40.90;;
70740;Laerm;58330;51.888;11.052;2023-05-09T13:06:16;31.41;29.55;41.75;;
70740;Laerm;58330;51.888;11.052;2023-05-09T13:08:43;31.46;29.70;42.04;;
70740;Laerm;58330;51.888;11.052;2023-05-09T13:11:15;31.58;29.17;42.25;;
70740;Laerm;58330;51.888;11.052;2023-05-09T13:13:43;31.76;29.50;42.72;;
70740;Laerm;58330;51.888;11.052;2023-05-09T13:16:10;31.15;29.55;34.69;;
70740;Laerm;58330;51.888;11.052;2023-05-09T13:18:37;31.57;29.45;36.98;;
70740;Laerm;58330;51.888;11.052;2023-05-09T13:21:03;31.63;29.69;40.06;;
70740;Laerm;58330;51.888;11.052;2023-05-09T13:23:42;31.73;29.40;45.20;;
70740;Laerm;58330;51.888;11.052;2023-05-09T13:26:09;31.85;29.60;41.85;;
70740;Laerm;58330;51.888;11.052;2023-05-09T13:28:35;31.34;29.58;37.67;;
70740;Laerm;58330;51.888;11.052;2023-05-09T13:31:02;31.64;29.66;45.28;;
70740;Laerm;58330;51.888;11.052;2023-05-09T13:33:29;31.56;29.53;41.89;;
70740;Laerm;58330;51.888;11.052;2023-05-09T13:35:56;31.34;29.46;37.85;;
70740;Laerm;58330;51.888;11.052;2023-05-09T13:38:22;31.07;29.44;35.44;;
70740;Laerm;58330;51.888;11.052;2023-05-09T13:40:49;31.70;29.46;41.74;;
70740;Laerm;58330;51.888;11.052;2023-05-09T13:43:15;31.43;29.72;40.16;;
70740;Laerm;58330;51.888;11.052;2023-05-09T13:45:42;31.41;29.63;39.11;;
70740;Laerm;58330;51.888;11.052;2023-05-09T13:48:08;31.75;29.46;40.42;;
70740;Laerm;58330;51.888;11.052;2023-05-09T13:50:37;31.44;29.52;43.58;;
70740;Laerm;58330;51.888;11.052;2023-05-09T13:53:03;30.94;29.40;37.00;;
70740;Laerm;58330;51.888;11.052;2023-05-09T13:55:29;31.52;29.58;38.49;;
70740;Laerm;58330;51.888;11.052;2023-05-09T13:57:56;31.15;29.37;38.49;;
70740;Laerm;58330;51.888;11.052;2023-05-09T14:00:22;31.54;29.21;53.46;;
70740;Laerm;58330;51.888;11.052;2023-05-09T14:03:02;31.60;29.57;39.03;;
70740;Laerm;58330;51.888;11.052;2023-05-09T14:05:29;31.87;29.53;40.65;;
70740;Laerm;58330;51.888;11.052;2023-05-09T14:07:57;31.07;29.19;39.14;;
70740;Laerm;58330;51.888;11.052;2023-05-09T14:10:25;30.89;29.19;37.08;;
70740;Laerm;58330;51.888;11.052;2023-05-09T14:12:51;31.81;29.44;38.27;;
70740;Laerm;58330;51.888;11.052;2023-05-09T14:15:18;31.41;29.42;47.22;;
70740;Laerm;58330;51.888;11.052;2023-05-09T14:17:45;31.39;29.16;37.96;;
70740;Laerm;58330;51.888;11.052;2023-05-09T14:20:11;31.19;29.10;41.38;;
70740;Laerm;58330;51.888;11.052;2023-05-09T14:22:39;31.20;29.17;36.56;;
70740;Laerm;58330;51.888;11.052;2023-05-09T14:25:07;31.29;29.28;40.42;;
70740;Laerm;58330;51.888;11.052;2023-05-09T14:27:34;30.94;29.13;36.46;;